sensor_id;sensor_type;location;lat;lon;timestamp;P1;durP1;ratioP1;P2;durP2;ratioP2
75295;SDS011;64623;44.738;37.804;2024-03-02T00:00:36;14.18;;;7.78;;
75295;SDS011;64623;44.738;37.804;2024-03-02T00:01:39;10.48;;;6.28;;
75295;SDS011;64623;44.738;37.804;2024-03-02T00:02:42;22.20;;;8.57;;
75295;SDS011;64623;44.738;37.804;2024-03-02T00:03:46;20.15;;;9.60;;
75295;SDS011;64623;44.738;37.804;2024-03-02T00:04:49;18.35;;;11.05;;
75295;SDS011;64623;44.738;37.804;2024-03-02T00:05:53;16.23;;;8.60;;
75295;SDS011;64623;44.738;37.804;2024-03-02T00:06:56;23.45;;;7.75;;
75295;SDS011;64623;44.738;37.804;2024-03-02T00:07:58;15.18;;;8.13;;
75295;SDS011;64623;44.738;37.804;2024-03-02T00:09:02;11.80;;;6.32;;
75295;SDS011;64623;44.738;37.804;2024-03-02T00:10:07;12.85;;;5.43;;
75295;SDS011;64623;44.738;37.804;2024-03-02T00:15:37;9.00;;;4.35;;
75295;SDS011;64623;44.738;37.804;2024-03-02T00:16:49;13.40;;;5.93;;
75295;SDS011;64623;44.738;37.804;2024-03-02T00:17:54;12.20;;;5.10;;
75295;SDS011;64623;44.738;37.804;2024-03-02T00:19:01;11.18;;;5.32;;
75295;SDS011;64623;44.738;37.804;2024-03-02T00:20:05;11.18;;;5.13;;
75295;SDS011;64623;44.738;37.804;2024-03-02T00:21:12;10.18;;;4.95;;
75295;SDS011;64623;44.738;37.804;2024-03-02T00:22:17;9.43;;;4.95;;
75295;SDS011;64623;44.738;37.804;2024-03-02T00:23:20;11.02;;;5.25;;
75295;SDS011;64623;44.738;37.804;2024-03-02T00:24:34;9.82;;;5.18;;
75295;SDS011;64623;44.738;37.804;2024-03-02T00:25:38;9.40;;;5.20;;
75295;SDS011;64623;44.738;37.804;2024-03-02T00:26:58;10.95;;;6.20;;
75295;SDS011;64623;44.738;37.804;2024-03-02T00:28:01;17.42;;;5.75;;
75295;SDS011;64623;44.738;37.804;2024-03-02T00:29:04;13.60;;;6.43;;
75295;SDS011;64623;44.738;37.804;2024-03-02T00:30:34;14.02;;;7.10;;
75295;SDS011;64623;44.738;37.804;2024-03-02T00:31:42;14.43;;;6.63;;
75295;SDS011;64623;44.738;37.804;2024-03-02T00:32:45;10.27;;;6.65;;
75295;SDS011;64623;44.738;37.804;2024-03-02T00:33:48;12.27;;;8.07;;
75295;SDS011;64623;44.738;37.804;2024-03-02T00:34:51;11.02;;;6.65;;
75295;SDS011;64623;44.738;37.804;2024-03-02T00:35:56;14.35;;;6.43;;
75295;SDS011;64623;44.738;37.804;2024-03-02T00:36:59;10.18;;;5.82;;
75295;SDS011;64623;44.738;37.804;2024-03-02T00:38:05;8.30;;;5.53;;
75295;SDS011;64623;44.738;37.804;2024-03-02T00:39:09;11.57;;;4.60;;
75295;SDS011;64623;44.738;37.804;2024-03-02T00:40:16;11.60;;;4.20;;
75295;SDS011;64623;44.738;37.804;2024-03-02T00:41:29;7.43;;;3.72;;
75295;SDS011;64623;44.738;37.804;2024-03-02T00:43:47;7.03;;;3.58;;
75295;SDS011;64623;44.738;37.804;2024-03-02T00:44:54;7.25;;;4.30;;
75295;SDS011;64623;44.738;37.804;2024-03-02T00:45:57;7.45;;;3.55;;
75295;SDS011;64623;44.738;37.804;2024-03-02T00:46:59;5.05;;;1.90;;
75295;SDS011;64623;44.738;37.804;2024-03-02T00:48:03;6.95;;;2.35;;
75295;SDS011;64623;44.738;37.804;2024-03-02T00:50:22;4.85;;;2.50;;
75295;SDS011;64623;44.738;37.804;2024-03-02T00:51:29;4.43;;;2.08;;
75295;SDS011;64623;44.738;37.804;2024-03-02T00:52:33;4.80;;;2.40;;
75295;SDS011;64623;44.738;37.804;2024-03-02T00:53:37;4.75;;;2.55;;
75295;SDS011;64623;44.738;37.804;2024-03-02T00:54:40;4.75;;;2.60;;
75295;SDS011;64623;44.738;37.804;2024-03-02T00:55:43;7.13;;;2.38;;
75295;SDS011;64623;44.738;37.804;2024-03-02T00:56:49;4.32;;;2.75;;
75295;SDS011;64623;44.738;37.804;2024-03-02T00:57:53;5.53;;;2.72;;
75295;SDS011;64623;44.738;37.804;2024-03-02T00:58:56;5.45;;;3.28;;
75295;SDS011;64623;44.738;37.804;2024-03-02T01:00:00;5.38;;;3.13;;
75295;SDS011;64623;44.738;37.804;2024-03-02T01:01:03;5.75;;;3.25;;
75295;SDS011;64623;44.738;37.804;2024-03-02T01:02:06;5.25;;;3.10;;
75295;SDS011;64623;44.738;37.804;2024-03-02T01:03:09;7.40;;;3.35;;
75295;SDS011;64623;44.738;37.804;2024-03-02T01:04:13;5.38;;;3.03;;
75295;SDS011;64623;44.738;37.804;2024-03-02T01:05:19;5.63;;;3.00;;
75295;SDS011;64623;44.738;37.804;2024-03-02T01:06:22;6.07;;;3.47;;
75295;SDS011;64623;44.738;37.804;2024-03-02T01:07:25;6.75;;;3.25;;
75295;SDS011;64623;44.738;37.804;2024-03-02T01:08:28;6.10;;;2.97;;
75295;SDS011;64623;44.738;37.804;2024-03-02T01:09:32;4.85;;;2.90;;
75295;SDS011;64623;44.738;37.804;2024-03-02T01:10:35;6.60;;;4.47;;
75295;SDS011;64623;44.738;37.804;2024-03-02T01:11:38;4.57;;;3.50;;
75295;SDS011;64623;44.738;37.804;2024-03-02T01:12:41;5.93;;;3.42;;
75295;SDS011;64623;44.738;37.804;2024-03-02T01:13:44;6.25;;;2.65;;
75295;SDS011;64623;44.738;37.804;2024-03-02T01:14:48;5.28;;;2.88;;
75295;SDS011;64623;44.738;37.804;2024-03-02T01:15:51;3.90;;;2.42;;
75295;SDS011;64623;44.738;37.804;2024-03-02T01:16:55;3.58;;;2.28;;
75295;SDS011;64623;44.738;37.804;2024-03-02T01:17:58;6.80;;;2.40;;
75295;SDS011;64623;44.738;37.804;2024-03-02T01:19:01;3.53;;;2.28;;
75295;SDS011;64623;44.738;37.804;2024-03-02T01:20:04;4.15;;;2.55;;
75295;SDS011;64623;44.738;37.804;2024-03-02T01:21:11;3.60;;;2.20;;
75295;SDS011;64623;44.738;37.804;2024-03-02T01:22:14;3.63;;;2.38;;
75295;SDS011;64623;44.738;37.804;2024-03-02T01:23:21;7.53;;;3.65;;
75295;SDS011;64623;44.738;37.804;2024-03-02T01:24:24;11.85;;;5.75;;
75295;SDS011;64623;44.738;37.804;2024-03-02T01:25:27;15.93;;;7.22;;
75295;SDS011;64623;44.738;37.804;2024-03-02T01:26:30;18.88;;;8.65;;
75295;SDS011;64623;44.738;37.804;2024-03-02T01:27:34;15.75;;;6.38;;
75295;SDS011;64623;44.738;37.804;2024-03-02T01:28:37;13.80;;;6.20;;
75295;SDS011;64623;44.738;37.804;2024-03-02T01:29:39;13.20;;;5.65;;
75295;SDS011;64623;44.738;37.804;2024-03-02T01:30:46;9.80;;;4.85;;
75295;SDS011;64623;44.738;37.804;2024-03-02T01:31:49;10.45;;;5.78;;
75295;SDS011;64623;44.738;37.804;2024-03-02T01:32:53;12.52;;;5.72;;
75295;SDS011;64623;44.738;37.804;2024-03-02T01:33:56;16.08;;;6.25;;
75295;SDS011;64623;44.738;37.804;2024-03-02T01:34:59;21.17;;;11.75;;
75295;SDS011;64623;44.738;37.804;2024-03-02T01:36:03;18.63;;;9.25;;
75295;SDS011;64623;44.738;37.804;2024-03-02T01:37:06;12.20;;;6.50;;
75295;SDS011;64623;44.738;37.804;2024-03-02T01:38:10;12.82;;;6.47;;
75295;SDS011;64623;44.738;37.804;2024-03-02T01:39:12;9.73;;;5.68;;
75295;SDS011;64623;44.738;37.804;2024-03-02T01:40:16;11.98;;;5.93;;
75295;SDS011;64623;44.738;37.804;2024-03-02T01:41:19;13.63;;;5.95;;
75295;SDS011;64623;44.738;37.804;2024-03-02T01:42:22;16.95;;;7.80;;
75295;SDS011;64623;44.738;37.804;2024-03-02T01:43:25;16.75;;;6.50;;
75295;SDS011;64623;44.738;37.804;2024-03-02T01:44:28;14.77;;;7.50;;
75295;SDS011;64623;44.738;37.804;2024-03-02T01:45:31;17.90;;;7.38;;
75295;SDS011;64623;44.738;37.804;2024-03-02T01:46:34;14.02;;;6.70;;
75295;SDS011;64623;44.738;37.804;2024-03-02T01:47:38;10.63;;;4.35;;
75295;SDS011;64623;44.738;37.804;2024-03-02T01:48:41;14.55;;;5.22;;
75295;SDS011;64623;44.738;37.804;2024-03-02T01:49:44;10.65;;;4.35;;
75295;SDS011;64623;44.738;37.804;2024-03-02T01:50:47;14.07;;;4.68;;
75295;SDS011;64623;44.738;37.804;2024-03-02T01:51:50;8.15;;;4.13;;
75295;SDS011;64623;44.738;37.804;2024-03-02T01:52:53;6.07;;;3.33;;
75295;SDS011;64623;44.738;37.804;2024-03-02T01:54:00;6.38;;;3.47;;
75295;SDS011;64623;44.738;37.804;2024-03-02T01:55:03;6.90;;;3.78;;
75295;SDS011;64623;44.738;37.804;2024-03-02T01:56:06;6.10;;;3.28;;
75295;SDS011;64623;44.738;37.804;2024-03-02T01:57:09;5.60;;;3.75;;
75295;SDS011;64623;44.738;37.804;2024-03-02T01:58:12;6.90;;;3.25;;
75295;SDS011;64623;44.738;37.804;2024-03-02T01:59:16;8.15;;;3.47;;
75295;SDS011;64623;44.738;37.804;2024-03-02T02:00:20;7.35;;;4.88;;
75295;SDS011;64623;44.738;37.804;2024-03-02T02:01:23;7.03;;;4.10;;
75295;SDS011;64623;44.738;37.804;2024-03-02T02:02:26;5.57;;;3.30;;
75295;SDS011;64623;44.738;37.804;2024-03-02T02:03:29;6.88;;;5.18;;
75295;SDS011;64623;44.738;37.804;2024-03-02T02:04:33;6.03;;;3.72;;
75295;SDS011;64623;44.738;37.804;2024-03-02T02:05:36;8.40;;;4.88;;
75295;SDS011;64623;44.738;37.804;2024-03-02T02:06:39;8.85;;;5.45;;
75295;SDS011;64623;44.738;37.804;2024-03-02T02:07:42;7.43;;;4.82;;
75295;SDS011;64623;44.738;37.804;2024-03-02T02:08:45;8.18;;;5.15;;
75295;SDS011;64623;44.738;37.804;2024-03-02T02:09:49;7.85;;;5.80;;
75295;SDS011;64623;44.738;37.804;2024-03-02T02:10:52;8.45;;;5.63;;
75295;SDS011;64623;44.738;37.804;2024-03-02T02:11:55;8.88;;;5.63;;
75295;SDS011;64623;44.738;37.804;2024-03-02T02:12:58;7.15;;;5.00;;
75295;SDS011;64623;44.738;37.804;2024-03-02T02:14:01;8.82;;;4.85;;
75295;SDS011;64623;44.738;37.804;2024-03-02T02:15:21;8.18;;;5.05;;
75295;SDS011;64623;44.738;37.804;2024-03-02T02:16:24;10.13;;;5.88;;
75295;SDS011;64623;44.738;37.804;2024-03-02T02:17:27;8.05;;;4.97;;
75295;SDS011;64623;44.738;37.804;2024-03-02T02:18:30;9.13;;;5.35;;
75295;SDS011;64623;44.738;37.804;2024-03-02T02:19:33;8.27;;;4.90;;
75295;SDS011;64623;44.738;37.804;2024-03-02T02:20:36;9.07;;;5.05;;
75295;SDS011;64623;44.738;37.804;2024-03-02T02:21:42;8.70;;;5.65;;
75295;SDS011;64623;44.738;37.804;2024-03-02T02:24:04;9.68;;;4.60;;
75295;SDS011;64623;44.738;37.804;2024-03-02T02:25:08;6.95;;;5.15;;
75295;SDS011;64623;44.738;37.804;2024-03-02T02:26:11;7.82;;;4.18;;
75295;SDS011;64623;44.738;37.804;2024-03-02T02:27:14;6.38;;;4.05;;
75295;SDS011;64623;44.738;37.804;2024-03-02T02:28:17;6.78;;;4.57;;
75295;SDS011;64623;44.738;37.804;2024-03-02T02:29:20;8.25;;;5.35;;
75295;SDS011;64623;44.738;37.804;2024-03-02T02:30:24;9.77;;;4.63;;
75295;SDS011;64623;44.738;37.804;2024-03-02T02:31:50;6.95;;;5.07;;
75295;SDS011;64623;44.738;37.804;2024-03-02T02:32:52;7.05;;;4.45;;
75295;SDS011;64623;44.738;37.804;2024-03-02T02:33:55;7.78;;;5.20;;
75295;SDS011;64623;44.738;37.804;2024-03-02T02:34:58;8.43;;;4.07;;
75295;SDS011;64623;44.738;37.804;2024-03-02T02:36:01;9.55;;;5.05;;
75295;SDS011;64623;44.738;37.804;2024-03-02T02:37:04;8.00;;;4.93;;
75295;SDS011;64623;44.738;37.804;2024-03-02T02:38:07;8.98;;;5.60;;
75295;SDS011;64623;44.738;37.804;2024-03-02T02:39:11;13.50;;;6.60;;
75295;SDS011;64623;44.738;37.804;2024-03-02T02:40:17;11.30;;;6.53;;
75295;SDS011;64623;44.738;37.804;2024-03-02T02:41:23;12.05;;;7.07;;
75295;SDS011;64623;44.738;37.804;2024-03-02T02:42:26;9.88;;;7.10;;
75295;SDS011;64623;44.738;37.804;2024-03-02T02:43:29;12.38;;;7.35;;
75295;SDS011;64623;44.738;37.804;2024-03-02T02:44:32;14.32;;;8.73;;
75295;SDS011;64623;44.738;37.804;2024-03-02T02:45:35;11.52;;;6.85;;
75295;SDS011;64623;44.738;37.804;2024-03-02T02:46:38;13.98;;;8.43;;
75295;SDS011;64623;44.738;37.804;2024-03-02T02:47:42;13.70;;;8.88;;
75295;SDS011;64623;44.738;37.804;2024-03-02T02:48:46;14.52;;;9.02;;
75295;SDS011;64623;44.738;37.804;2024-03-02T02:49:49;12.05;;;8.13;;
75295;SDS011;64623;44.738;37.804;2024-03-02T02:50:52;16.50;;;8.77;;
75295;SDS011;64623;44.738;37.804;2024-03-02T02:51:55;12.52;;;7.78;;
75295;SDS011;64623;44.738;37.804;2024-03-02T02:52:58;14.82;;;8.75;;
75295;SDS011;64623;44.738;37.804;2024-03-02T02:54:01;13.57;;;8.43;;
75295;SDS011;64623;44.738;37.804;2024-03-02T02:55:04;13.07;;;7.95;;
75295;SDS011;64623;44.738;37.804;2024-03-02T02:56:08;14.18;;;7.47;;
75295;SDS011;64623;44.738;37.804;2024-03-02T02:57:11;12.23;;;7.38;;
75295;SDS011;64623;44.738;37.804;2024-03-02T02:58:14;12.75;;;7.00;;
75295;SDS011;64623;44.738;37.804;2024-03-02T02:59:17;11.73;;;8.40;;
75295;SDS011;64623;44.738;37.804;2024-03-02T03:00:20;11.48;;;7.55;;
75295;SDS011;64623;44.738;37.804;2024-03-02T03:01:25;12.18;;;7.43;;
75295;SDS011;64623;44.738;37.804;2024-03-02T03:02:28;11.45;;;8.23;;
75295;SDS011;64623;44.738;37.804;2024-03-02T03:03:31;11.65;;;8.32;;
75295;SDS011;64623;44.738;37.804;2024-03-02T03:04:34;11.65;;;7.68;;
75295;SDS011;64623;44.738;37.804;2024-03-02T03:05:37;14.60;;;9.32;;
75295;SDS011;64623;44.738;37.804;2024-03-02T03:06:40;13.07;;;8.27;;
75295;SDS011;64623;44.738;37.804;2024-03-02T03:07:43;10.95;;;7.38;;
75295;SDS011;64623;44.738;37.804;2024-03-02T03:08:50;13.50;;;8.05;;
75295;SDS011;64623;44.738;37.804;2024-03-02T03:09:53;13.23;;;7.60;;
75295;SDS011;64623;44.738;37.804;2024-03-02T03:10:56;14.05;;;7.88;;
75295;SDS011;64623;44.738;37.804;2024-03-02T03:11:59;10.90;;;7.30;;
75295;SDS011;64623;44.738;37.804;2024-03-02T03:13:02;13.70;;;7.63;;
75295;SDS011;64623;44.738;37.804;2024-03-02T03:14:06;10.80;;;7.07;;
75295;SDS011;64623;44.738;37.804;2024-03-02T03:15:09;12.13;;;7.55;;
75295;SDS011;64623;44.738;37.804;2024-03-02T03:16:13;11.25;;;6.03;;
75295;SDS011;64623;44.738;37.804;2024-03-02T03:17:16;10.10;;;6.22;;
75295;SDS011;64623;44.738;37.804;2024-03-02T03:18:20;9.60;;;6.38;;
75295;SDS011;64623;44.738;37.804;2024-03-02T03:19:23;9.10;;;5.72;;
75295;SDS011;64623;44.738;37.804;2024-03-02T03:20:26;9.52;;;5.55;;
75295;SDS011;64623;44.738;37.804;2024-03-02T03:21:29;9.57;;;6.45;;
75295;SDS011;64623;44.738;37.804;2024-03-02T03:22:32;10.88;;;6.25;;
75295;SDS011;64623;44.738;37.804;2024-03-02T03:23:35;9.63;;;6.32;;
75295;SDS011;64623;44.738;37.804;2024-03-02T03:24:38;9.27;;;6.20;;
75295;SDS011;64623;44.738;37.804;2024-03-02T03:25:41;10.40;;;6.53;;
75295;SDS011;64623;44.738;37.804;2024-03-02T03:26:45;10.00;;;7.22;;
75295;SDS011;64623;44.738;37.804;2024-03-02T03:27:48;11.77;;;6.30;;
75295;SDS011;64623;44.738;37.804;2024-03-02T03:28:51;10.52;;;5.40;;
75295;SDS011;64623;44.738;37.804;2024-03-02T03:29:54;9.13;;;5.90;;
75295;SDS011;64623;44.738;37.804;2024-03-02T03:30:57;9.15;;;6.18;;
75295;SDS011;64623;44.738;37.804;2024-03-02T03:32:00;10.13;;;8.73;;
75295;SDS011;64623;44.738;37.804;2024-03-02T03:33:03;10.23;;;6.40;;
75295;SDS011;64623;44.738;37.804;2024-03-02T03:34:08;9.23;;;6.15;;
75295;SDS011;64623;44.738;37.804;2024-03-02T03:35:11;9.23;;;6.05;;
75295;SDS011;64623;44.738;37.804;2024-03-02T03:36:15;10.98;;;6.28;;
75295;SDS011;64623;44.738;37.804;2024-03-02T03:37:18;9.50;;;7.15;;
75295;SDS011;64623;44.738;37.804;2024-03-02T03:38:21;9.10;;;6.22;;
75295;SDS011;64623;44.738;37.804;2024-03-02T03:39:24;10.07;;;6.63;;
75295;SDS011;64623;44.738;37.804;2024-03-02T03:40:27;10.02;;;6.32;;
75295;SDS011;64623;44.738;37.804;2024-03-02T03:41:30;8.88;;;6.80;;
75295;SDS011;64623;44.738;37.804;2024-03-02T03:42:33;11.05;;;6.82;;
75295;SDS011;64623;44.738;37.804;2024-03-02T03:43:36;14.00;;;7.70;;
75295;SDS011;64623;44.738;37.804;2024-03-02T03:44:39;13.15;;;7.28;;
75295;SDS011;64623;44.738;37.804;2024-03-02T03:45:44;12.40;;;9.00;;
75295;SDS011;64623;44.738;37.804;2024-03-02T03:46:47;9.32;;;6.55;;
75295;SDS011;64623;44.738;37.804;2024-03-02T03:47:50;13.00;;;8.18;;
75295;SDS011;64623;44.738;37.804;2024-03-02T03:48:53;11.27;;;7.28;;
75295;SDS011;64623;44.738;37.804;2024-03-02T03:49:58;10.00;;;6.85;;
75295;SDS011;64623;44.738;37.804;2024-03-02T03:51:01;12.63;;;7.80;;
75295;SDS011;64623;44.738;37.804;2024-03-02T03:52:04;13.85;;;7.63;;
75295;SDS011;64623;44.738;37.804;2024-03-02T03:53:07;13.32;;;7.63;;
75295;SDS011;64623;44.738;37.804;2024-03-02T03:54:10;11.73;;;8.18;;
75295;SDS011;64623;44.738;37.804;2024-03-02T03:55:13;12.27;;;7.63;;
75295;SDS011;64623;44.738;37.804;2024-03-02T03:56:16;11.95;;;8.00;;
75295;SDS011;64623;44.738;37.804;2024-03-02T03:57:19;11.98;;;7.88;;
75295;SDS011;64623;44.738;37.804;2024-03-02T03:58:22;12.00;;;7.90;;
75295;SDS011;64623;44.738;37.804;2024-03-02T03:59:25;10.10;;;7.22;;
75295;SDS011;64623;44.738;37.804;2024-03-02T04:00:28;13.35;;;7.07;;
75295;SDS011;64623;44.738;37.804;2024-03-02T04:01:31;11.80;;;7.18;;
75295;SDS011;64623;44.738;37.804;2024-03-02T04:02:34;9.95;;;7.68;;
75295;SDS011;64623;44.738;37.804;2024-03-02T04:03:38;11.73;;;7.70;;
75295;SDS011;64623;44.738;37.804;2024-03-02T04:04:41;11.65;;;7.90;;
75295;SDS011;64623;44.738;37.804;2024-03-02T04:05:46;12.82;;;7.57;;
75295;SDS011;64623;44.738;37.804;2024-03-02T04:06:49;11.30;;;6.28;;
75295;SDS011;64623;44.738;37.804;2024-03-02T04:07:52;9.77;;;6.20;;
75295;SDS011;64623;44.738;37.804;2024-03-02T04:08:54;11.68;;;6.82;;
75295;SDS011;64623;44.738;37.804;2024-03-02T04:09:58;12.05;;;6.57;;
75295;SDS011;64623;44.738;37.804;2024-03-02T04:11:01;15.02;;;8.00;;
75295;SDS011;64623;44.738;37.804;2024-03-02T04:12:05;10.68;;;6.85;;
75295;SDS011;64623;44.738;37.804;2024-03-02T04:13:08;11.07;;;6.82;;
75295;SDS011;64623;44.738;37.804;2024-03-02T04:14:12;14.35;;;6.78;;
75295;SDS011;64623;44.738;37.804;2024-03-02T04:15:15;11.20;;;7.55;;
75295;SDS011;64623;44.738;37.804;2024-03-02T04:16:18;13.27;;;7.47;;
75295;SDS011;64623;44.738;37.804;2024-03-02T04:17:21;10.43;;;6.85;;
75295;SDS011;64623;44.738;37.804;2024-03-02T04:18:24;11.50;;;6.15;;
75295;SDS011;64623;44.738;37.804;2024-03-02T04:19:27;11.50;;;6.10;;
75295;SDS011;64623;44.738;37.804;2024-03-02T04:20:30;11.18;;;6.80;;
75295;SDS011;64623;44.738;37.804;2024-03-02T04:21:33;10.80;;;7.28;;
75295;SDS011;64623;44.738;37.804;2024-03-02T04:22:36;10.18;;;6.75;;
75295;SDS011;64623;44.738;37.804;2024-03-02T04:23:39;11.38;;;6.15;;
75295;SDS011;64623;44.738;37.804;2024-03-02T04:24:42;13.10;;;7.70;;
75295;SDS011;64623;44.738;37.804;2024-03-02T04:25:45;11.00;;;6.65;;
75295;SDS011;64623;44.738;37.804;2024-03-02T04:26:48;11.75;;;8.25;;
75295;SDS011;64623;44.738;37.804;2024-03-02T04:27:51;13.25;;;6.82;;
75295;SDS011;64623;44.738;37.804;2024-03-02T04:28:54;11.75;;;7.18;;
75295;SDS011;64623;44.738;37.804;2024-03-02T04:29:57;12.38;;;6.07;;
75295;SDS011;64623;44.738;37.804;2024-03-02T04:31:00;8.80;;;5.90;;
75295;SDS011;64623;44.738;37.804;2024-03-02T04:32:03;13.48;;;6.47;;
75295;SDS011;64623;44.738;37.804;2024-03-02T04:33:06;13.15;;;6.35;;
75295;SDS011;64623;44.738;37.804;2024-03-02T04:34:12;9.93;;;6.30;;
75295;SDS011;64623;44.738;37.804;2024-03-02T04:35:15;12.95;;;7.65;;
75295;SDS011;64623;44.738;37.804;2024-03-02T04:36:18;10.30;;;5.50;;
75295;SDS011;64623;44.738;37.804;2024-03-02T04:37:21;11.85;;;7.47;;
75295;SDS011;64623;44.738;37.804;2024-03-02T04:38:24;9.15;;;6.43;;
75295;SDS011;64623;44.738;37.804;2024-03-02T04:39:27;11.98;;;6.88;;
75295;SDS011;64623;44.738;37.804;2024-03-02T04:40:30;10.40;;;5.22;;
75295;SDS011;64623;44.738;37.804;2024-03-02T04:41:34;9.73;;;5.95;;
75295;SDS011;64623;44.738;37.804;2024-03-02T04:42:37;12.05;;;6.47;;
75295;SDS011;64623;44.738;37.804;2024-03-02T04:43:44;12.10;;;6.90;;
75295;SDS011;64623;44.738;37.804;2024-03-02T04:44:47;15.63;;;6.88;;
75295;SDS011;64623;44.738;37.804;2024-03-02T04:45:50;14.30;;;7.40;;
75295;SDS011;64623;44.738;37.804;2024-03-02T04:46:53;10.07;;;6.90;;
75295;SDS011;64623;44.738;37.804;2024-03-02T04:47:56;12.68;;;7.28;;
75295;SDS011;64623;44.738;37.804;2024-03-02T04:48:59;12.48;;;7.28;;
75295;SDS011;64623;44.738;37.804;2024-03-02T04:50:02;13.07;;;7.40;;
75295;SDS011;64623;44.738;37.804;2024-03-02T04:51:06;10.63;;;6.88;;
75295;SDS011;64623;44.738;37.804;2024-03-02T04:52:09;14.05;;;8.57;;
75295;SDS011;64623;44.738;37.804;2024-03-02T04:53:12;10.77;;;6.57;;
75295;SDS011;64623;44.738;37.804;2024-03-02T04:54:16;12.48;;;7.60;;
75295;SDS011;64623;44.738;37.804;2024-03-02T04:55:19;13.52;;;7.57;;
75295;SDS011;64623;44.738;37.804;2024-03-02T04:56:39;11.60;;;7.68;;
75295;SDS011;64623;44.738;37.804;2024-03-02T04:57:53;12.95;;;7.55;;
75295;SDS011;64623;44.738;37.804;2024-03-02T04:58:59;14.95;;;7.82;;
75295;SDS011;64623;44.738;37.804;2024-03-02T05:00:02;12.07;;;7.53;;
75295;SDS011;64623;44.738;37.804;2024-03-02T05:01:09;11.73;;;7.03;;
75295;SDS011;64623;44.738;37.804;2024-03-02T05:02:13;11.98;;;7.50;;
75295;SDS011;64623;44.738;37.804;2024-03-02T05:03:16;11.77;;;8.98;;
75295;SDS011;64623;44.738;37.804;2024-03-02T05:04:19;13.07;;;7.78;;
75295;SDS011;64623;44.738;37.804;2024-03-02T05:05:22;12.95;;;7.45;;
75295;SDS011;64623;44.738;37.804;2024-03-02T05:06:25;10.00;;;7.43;;
75295;SDS011;64623;44.738;37.804;2024-03-02T05:07:28;14.13;;;9.55;;
75295;SDS011;64623;44.738;37.804;2024-03-02T05:08:31;13.18;;;8.25;;
75295;SDS011;64623;44.738;37.804;2024-03-02T05:09:34;12.52;;;7.85;;
75295;SDS011;64623;44.738;37.804;2024-03-02T05:10:37;13.40;;;7.60;;
75295;SDS011;64623;44.738;37.804;2024-03-02T05:11:40;11.68;;;7.45;;
75295;SDS011;64623;44.738;37.804;2024-03-02T05:12:43;12.02;;;7.25;;
75295;SDS011;64623;44.738;37.804;2024-03-02T05:13:46;10.73;;;6.55;;
75295;SDS011;64623;44.738;37.804;2024-03-02T05:14:48;12.85;;;6.90;;
75295;SDS011;64623;44.738;37.804;2024-03-02T05:15:52;11.02;;;7.30;;
75295;SDS011;64623;44.738;37.804;2024-03-02T05:16:54;11.23;;;7.85;;
75295;SDS011;64623;44.738;37.804;2024-03-02T05:17:57;8.68;;;6.25;;
75295;SDS011;64623;44.738;37.804;2024-03-02T05:19:02;10.80;;;7.68;;
75295;SDS011;64623;44.738;37.804;2024-03-02T05:20:08;11.15;;;7.53;;
75295;SDS011;64623;44.738;37.804;2024-03-02T05:21:11;12.90;;;7.13;;
75295;SDS011;64623;44.738;37.804;2024-03-02T05:22:14;11.93;;;7.50;;
75295;SDS011;64623;44.738;37.804;2024-03-02T05:23:17;13.10;;;7.88;;
75295;SDS011;64623;44.738;37.804;2024-03-02T05:24:20;15.48;;;7.90;;
75295;SDS011;64623;44.738;37.804;2024-03-02T05:25:23;11.55;;;7.07;;
75295;SDS011;64623;44.738;37.804;2024-03-02T05:26:26;14.65;;;9.18;;
75295;SDS011;64623;44.738;37.804;2024-03-02T05:27:29;11.98;;;8.27;;
75295;SDS011;64623;44.738;37.804;2024-03-02T05:28:32;17.08;;;7.93;;
75295;SDS011;64623;44.738;37.804;2024-03-02T05:29:35;11.27;;;7.65;;
75295;SDS011;64623;44.738;37.804;2024-03-02T05:30:38;10.90;;;8.25;;
75295;SDS011;64623;44.738;37.804;2024-03-02T05:31:41;12.05;;;7.82;;
75295;SDS011;64623;44.738;37.804;2024-03-02T05:32:44;12.43;;;8.60;;
75295;SDS011;64623;44.738;37.804;2024-03-02T05:33:47;10.50;;;7.78;;
75295;SDS011;64623;44.738;37.804;2024-03-02T05:34:51;12.18;;;7.35;;
75295;SDS011;64623;44.738;37.804;2024-03-02T05:35:54;11.35;;;8.27;;
75295;SDS011;64623;44.738;37.804;2024-03-02T05:36:57;11.07;;;7.47;;
75295;SDS011;64623;44.738;37.804;2024-03-02T05:38:00;14.75;;;9.57;;
75295;SDS011;64623;44.738;37.804;2024-03-02T05:39:03;13.40;;;9.05;;
75295;SDS011;64623;44.738;37.804;2024-03-02T05:40:08;18.65;;;8.73;;
75295;SDS011;64623;44.738;37.804;2024-03-02T05:41:13;16.92;;;9.40;;
75295;SDS011;64623;44.738;37.804;2024-03-02T05:42:16;14.15;;;9.35;;
75295;SDS011;64623;44.738;37.804;2024-03-02T05:43:20;12.35;;;8.32;;
75295;SDS011;64623;44.738;37.804;2024-03-02T05:44:22;11.90;;;7.90;;
75295;SDS011;64623;44.738;37.804;2024-03-02T05:45:25;12.52;;;8.27;;
75295;SDS011;64623;44.738;37.804;2024-03-02T05:46:28;16.15;;;9.18;;
75295;SDS011;64623;44.738;37.804;2024-03-02T05:47:31;14.07;;;9.23;;
75295;SDS011;64623;44.738;37.804;2024-03-02T05:48:35;18.20;;;8.85;;
75295;SDS011;64623;44.738;37.804;2024-03-02T05:49:38;16.55;;;8.35;;
75295;SDS011;64623;44.738;37.804;2024-03-02T05:50:41;17.85;;;8.35;;
75295;SDS011;64623;44.738;37.804;2024-03-02T05:51:44;17.80;;;9.02;;
75295;SDS011;64623;44.738;37.804;2024-03-02T05:52:47;14.18;;;8.02;;
75295;SDS011;64623;44.738;37.804;2024-03-02T05:53:50;13.10;;;7.95;;
75295;SDS011;64623;44.738;37.804;2024-03-02T05:54:53;14.75;;;8.27;;
75295;SDS011;64623;44.738;37.804;2024-03-02T05:55:56;14.38;;;10.30;;
75295;SDS011;64623;44.738;37.804;2024-03-02T05:56:59;14.98;;;9.80;;
75295;SDS011;64623;44.738;37.804;2024-03-02T05:58:19;15.98;;;8.75;;
75295;SDS011;64623;44.738;37.804;2024-03-02T05:59:25;14.43;;;9.18;;
75295;SDS011;64623;44.738;37.804;2024-03-02T06:00:28;13.48;;;8.88;;
75295;SDS011;64623;44.738;37.804;2024-03-02T06:01:33;14.55;;;9.02;;
75295;SDS011;64623;44.738;37.804;2024-03-02T06:02:39;15.38;;;9.40;;
75295;SDS011;64623;44.738;37.804;2024-03-02T06:03:42;12.38;;;8.70;;
75295;SDS011;64623;44.738;37.804;2024-03-02T06:04:46;13.38;;;9.05;;
75295;SDS011;64623;44.738;37.804;2024-03-02T06:05:49;16.58;;;9.07;;
75295;SDS011;64623;44.738;37.804;2024-03-02T06:06:52;16.80;;;8.93;;
75295;SDS011;64623;44.738;37.804;2024-03-02T06:07:56;16.55;;;9.27;;
75295;SDS011;64623;44.738;37.804;2024-03-02T06:09:02;12.88;;;8.85;;
75295;SDS011;64623;44.738;37.804;2024-03-02T06:10:15;18.30;;;9.40;;
75295;SDS011;64623;44.738;37.804;2024-03-02T06:11:19;12.55;;;8.77;;
75295;SDS011;64623;44.738;37.804;2024-03-02T06:12:22;14.75;;;9.35;;
75295;SDS011;64623;44.738;37.804;2024-03-02T06:13:25;16.08;;;8.30;;
75295;SDS011;64623;44.738;37.804;2024-03-02T06:14:28;17.98;;;8.75;;
75295;SDS011;64623;44.738;37.804;2024-03-02T06:15:31;16.33;;;9.52;;
75295;SDS011;64623;44.738;37.804;2024-03-02T06:16:35;14.27;;;8.93;;
75295;SDS011;64623;44.738;37.804;2024-03-02T06:17:38;12.25;;;8.95;;
75295;SDS011;64623;44.738;37.804;2024-03-02T06:18:41;12.05;;;8.38;;
75295;SDS011;64623;44.738;37.804;2024-03-02T06:19:44;13.52;;;8.77;;
75295;SDS011;64623;44.738;37.804;2024-03-02T06:20:47;13.23;;;8.43;;
75295;SDS011;64623;44.738;37.804;2024-03-02T06:21:51;18.58;;;9.18;;
75295;SDS011;64623;44.738;37.804;2024-03-02T06:22:54;14.25;;;8.98;;
75295;SDS011;64623;44.738;37.804;2024-03-02T06:23:58;15.95;;;8.57;;